createdAt,value
2023-04-16T02:36:58.539Z,2.90
2023-04-16T02:39:26.572Z,2.67
2023-04-16T02:41:55.041Z,2.67
2023-04-16T02:44:22.987Z,2.63
2023-04-16T02:46:50.765Z,3.00
2023-04-16T02:49:18.571Z,2.45
2023-04-16T02:51:46.470Z,2.60
2023-04-16T02:54:14.398Z,2.35
2023-04-16T02:56:42.185Z,2.70
2023-04-16T02:59:10.112Z,2.78
2023-04-16T03:01:38.123Z,2.38
2023-04-16T03:04:06.065Z,2.50
2023-04-16T03:06:33.774Z,2.90
2023-04-16T03:09:01.716Z,2.60
2023-04-16T03:11:29.415Z,2.60
2023-04-16T03:13:57.348Z,3.17
2023-04-16T03:16:24.997Z,2.40
2023-04-16T03:18:52.905Z,2.33
2023-04-16T03:21:20.577Z,2.40
2023-04-16T03:23:48.469Z,2.40
2023-04-16T03:26:16.150Z,1.98
2023-04-16T03:28:43.966Z,2.60
2023-04-16T03:31:12.033Z,2.47
2023-04-16T03:33:40.083Z,2.38
2023-04-16T03:36:07.997Z,2.40
2023-04-16T03:38:35.778Z,2.30
2023-04-16T03:41:03.628Z,2.38
2023-04-16T03:43:34.130Z,2.47
2023-04-16T03:46:01.936Z,2.25
2023-04-16T03:48:29.633Z,2.20
2023-04-16T03:50:58.807Z,2.60
2023-04-16T03:53:26.626Z,2.53
2023-04-16T03:55:54.436Z,2.50
2023-04-16T03:58:23.261Z,2.10
2023-04-16T04:00:55.583Z,3.40
2023-04-16T04:03:23.542Z,2.75
2023-04-16T04:05:51.532Z,2.53
2023-04-16T04:08:26.372Z,3.05
2023-04-16T04:10:54.417Z,2.95
2023-04-16T04:13:23.817Z,2.95
2023-04-16T04:15:53.006Z,2.25
2023-04-16T04:18:21.837Z,2.33
2023-04-16T04:20:49.678Z,2.22
2023-04-16T04:23:20.264Z,2.65
2023-04-16T04:25:48.821Z,2.60
2023-04-16T04:28:16.739Z,2.45
2023-04-16T04:30:44.375Z,2.88
2023-04-16T04:33:13.130Z,3.00
2023-04-16T04:35:41.027Z,2.50
2023-04-16T04:38:09.762Z,2.42
2023-04-16T04:40:37.576Z,2.42
2023-04-16T04:43:05.406Z,2.45
2023-04-16T04:45:33.733Z,2.38
2023-04-16T04:48:01.802Z,2.42
2023-04-16T04:50:30.787Z,2.65
2023-04-16T04:52:58.807Z,2.65
2023-04-16T04:55:26.526Z,2.25
2023-04-16T04:57:54.402Z,2.15
2023-04-16T05:00:22.381Z,2.55
2023-04-16T05:02:54.719Z,2.58
2023-04-16T05:05:22.700Z,2.28
2023-04-16T05:07:50.733Z,2.42
2023-04-16T05:10:18.661Z,2.30
2023-04-16T05:12:49.065Z,2.65
2023-04-16T05:15:17.334Z,2.47
2023-04-16T05:17:44.988Z,2.50
2023-04-16T05:20:13.036Z,2.30
2023-04-16T05:22:40.687Z,2.30
2023-04-16T05:25:09.155Z,2.55
2023-04-16T05:27:37.616Z,2.30
2023-04-16T05:30:06.001Z,2.45
2023-04-16T05:32:34.226Z,2.50
2023-04-16T05:35:02.715Z,2.38
2023-04-16T05:37:30.637Z,2.47
2023-04-16T05:39:58.435Z,2.30
2023-04-16T05:42:26.173Z,2.35
2023-04-16T05:44:53.881Z,2.50
2023-04-16T05:47:21.659Z,2.47
2023-04-16T05:49:49.456Z,2.58
2023-04-16T05:52:17.233Z,2.47
2023-04-16T05:54:44.914Z,2.30
2023-04-16T05:57:14.268Z,2.53
2023-04-16T05:59:42.167Z,2.72
2023-04-16T06:02:09.918Z,2.47
2023-04-16T06:04:37.807Z,2.65
2023-04-16T06:07:05.732Z,2.25
2023-04-16T06:09:33.517Z,2.20
2023-04-16T06:12:01.499Z,2.72
2023-04-16T06:14:29.256Z,2.47
2023-04-16T06:16:56.976Z,2.20
2023-04-16T06:19:24.799Z,2.42
2023-04-16T06:21:53.077Z,2.20
2023-04-16T06:24:20.906Z,2.40
2023-04-16T06:26:48.635Z,2.20
2023-04-16T06:29:16.458Z,2.50
2023-04-16T06:31:44.513Z,2.05
2023-04-16T06:34:12.475Z,2.42
2023-04-16T06:36:40.558Z,2.22
2023-04-16T06:39:08.393Z,2.13
2023-04-16T06:41:36.452Z,2.45
2023-04-16T06:44:04.261Z,2.10
2023-04-16T06:46:32.966Z,2.10
2023-04-16T06:49:00.686Z,1.90
2023-04-16T06:51:28.564Z,1.77
2023-04-16T06:53:56.488Z,1.80
2023-04-16T06:56:24.219Z,2.00
2023-04-16T06:58:52.081Z,2.17
2023-04-16T07:01:19.866Z,1.90
2023-04-16T07:03:48.132Z,2.00
2023-04-16T07:06:16.164Z,2.03
2023-04-16T07:08:43.889Z,2.00
2023-04-16T07:11:12.020Z,1.92
2023-04-16T07:13:39.753Z,2.03
2023-04-16T07:16:07.599Z,1.70
2023-04-16T07:18:35.521Z,1.95
2023-04-16T07:21:03.265Z,1.90
2023-04-16T07:23:31.588Z,1.77
2023-04-16T07:25:59.307Z,1.77
2023-04-16T07:28:27.049Z,1.90
2023-04-16T07:30:54.993Z,1.90
2023-04-16T07:33:22.730Z,2.45
2023-04-16T07:35:51.401Z,2.65
2023-04-16T07:38:19.066Z,2.42
2023-04-16T07:40:46.855Z,3.05
2023-04-16T07:43:16.475Z,2.55
2023-04-16T07:45:44.304Z,2.40
2023-04-16T07:48:12.108Z,2.75
2023-04-16T07:50:39.732Z,2.75
2023-04-16T07:53:07.973Z,3.30
2023-04-16T07:55:35.823Z,2.75
2023-04-16T07:58:03.690Z,2.50
2023-04-16T08:00:31.325Z,3.05
2023-04-16T08:02:59.314Z,2.70
2023-04-16T08:05:27.420Z,2.63
2023-04-16T08:07:55.156Z,2.67
2023-04-16T08:10:22.984Z,2.70
2023-04-16T08:12:50.719Z,2.55
2023-04-16T08:15:18.655Z,2.63
2023-04-16T08:17:46.472Z,2.40
2023-04-16T08:20:17.596Z,2.33
2023-04-16T08:22:47.015Z,2.38
2023-04-16T08:25:15.052Z,2.35
2023-04-16T08:27:42.830Z,2.80
2023-04-16T08:30:10.792Z,2.30
2023-04-16T08:32:38.869Z,2.40
2023-04-16T08:35:06.796Z,2.17
2023-04-16T08:37:34.502Z,1.95
2023-04-16T08:40:02.846Z,2.22
2023-04-16T08:42:37.183Z,2.10
2023-04-16T08:45:18.683Z,2.55
2023-04-16T08:47:48.007Z,2.10
2023-04-16T08:50:16.718Z,2.08
2023-04-16T08:52:57.396Z,2.33
2023-04-16T08:55:49.348Z,2.20
2023-04-16T08:58:20.738Z,1.87
2023-04-16T09:00:50.781Z,2.35
2023-04-16T09:03:21.958Z,1.88
2023-04-16T09:05:52.679Z,1.90
2023-04-16T09:08:21.440Z,1.73
2023-04-16T09:10:49.725Z,2.42
2023-04-16T09:13:20.541Z,2.10
2023-04-16T09:15:48.627Z,2.00
2023-04-16T09:18:16.437Z,2.22
2023-04-16T09:20:44.273Z,2.00
2023-04-16T09:23:11.962Z,2.20
2023-04-16T09:25:40.240Z,2.53
2023-04-16T09:28:07.992Z,2.17
2023-04-16T09:30:37.286Z,2.08
2023-04-16T09:33:17.680Z,1.98
2023-04-16T09:35:47.785Z,2.00
2023-04-16T09:38:15.822Z,2.35
2023-04-16T09:40:44.167Z,2.15
2023-04-16T09:43:16.453Z,2.10
2023-04-16T09:48:39.192Z,1.77
2023-04-16T09:51:07.683Z,1.90
2023-04-16T09:53:35.788Z,1.90
2023-04-16T09:56:06.453Z,1.95
2023-04-16T09:58:37.194Z,1.67
2023-04-16T10:01:09.913Z,1.40
2023-04-16T10:03:39.985Z,2.03
2023-04-16T10:06:22.152Z,1.98
2023-04-16T10:08:51.765Z,1.80
2023-04-16T10:11:21.397Z,1.90
2023-04-16T10:13:49.792Z,2.30
2023-04-16T10:16:18.332Z,2.30
2023-04-16T10:18:47.168Z,1.60
2023-04-16T10:21:16.473Z,1.73
2023-04-16T10:23:44.259Z,1.63
2023-04-16T10:26:12.160Z,1.67
2023-04-16T10:28:40.492Z,2.15
2023-04-16T10:31:09.224Z,1.48
2023-04-16T10:33:40.327Z,1.60
2023-04-16T10:36:12.038Z,1.85
2023-04-16T10:39:00.923Z,1.77
2023-04-16T10:41:29.282Z,1.35
2023-04-16T10:44:10.151Z,1.63
2023-04-16T10:46:39.485Z,1.35
2023-04-16T10:49:14.403Z,1.30
2023-04-16T10:51:42.443Z,1.70
2023-04-16T10:54:14.670Z,1.55
2023-04-16T10:56:44.796Z,1.40
2023-04-16T10:59:13.068Z,1.80
2023-04-16T11:01:45.801Z,1.50
2023-04-16T11:04:20.096Z,1.60
2023-04-16T11:07:03.574Z,1.30
2023-04-16T11:09:53.620Z,1.60
2023-04-16T11:12:38.298Z,1.63
2023-04-16T11:15:09.048Z,1.20
2023-04-16T11:17:44.260Z,1.45
2023-04-16T11:20:23.557Z,1.30
2023-04-16T11:22:52.821Z,1.80
2023-04-16T11:25:24.477Z,1.92
2023-04-16T11:27:52.883Z,1.40
2023-04-16T11:30:34.095Z,1.17
2023-04-16T11:33:09.463Z,1.50
2023-04-16T11:35:39.755Z,1.40
2023-04-16T11:38:07.793Z,1.20
2023-04-16T11:40:36.514Z,1.33
2023-04-16T11:43:13.149Z,1.20
2023-04-16T11:45:56.443Z,1.50
2023-04-16T11:48:24.480Z,1.40
2023-04-16T11:50:57.433Z,1.20
2023-04-16T11:53:25.295Z,1.48
2023-04-16T11:55:53.129Z,1.33
2023-04-16T11:58:22.875Z,1.60
2023-04-16T12:00:53.694Z,1.20
2023-04-16T12:03:43.937Z,1.58
2023-04-16T12:06:12.098Z,1.60
2023-04-16T12:08:39.767Z,2.05
2023-04-16T12:11:07.609Z,1.60
2023-04-16T12:13:40.341Z,1.10
2023-04-16T12:16:19.668Z,1.27
2023-04-16T12:19:04.271Z,1.33
2023-04-16T12:21:39.752Z,1.40
2023-04-16T12:24:08.387Z,1.38
2023-04-16T12:26:44.770Z,1.50
2023-04-16T12:29:17.312Z,1.52
2023-04-16T12:31:45.285Z,1.85
2023-04-16T12:34:15.427Z,1.33
2023-04-16T12:36:44.697Z,1.75
2023-04-16T12:39:14.835Z,1.35
2023-04-16T12:41:43.866Z,1.23
2023-04-16T12:44:16.805Z,1.40
2023-04-16T12:46:45.268Z,1.48
2023-04-16T12:49:13.271Z,1.65
2023-04-16T12:51:41.278Z,1.30
2023-04-16T12:54:08.949Z,1.40
2023-04-16T12:56:36.842Z,1.25
2023-04-16T12:59:05.046Z,1.38
2023-04-16T13:01:34.672Z,1.35
2023-04-16T13:04:02.607Z,1.48
2023-04-16T13:06:33.939Z,1.50
2023-04-16T13:09:01.922Z,1.70
2023-04-16T13:11:29.587Z,1.00
2023-04-16T13:13:57.426Z,1.40
2023-04-16T13:16:25.340Z,1.08
2023-04-16T13:18:53.251Z,1.45
2023-04-16T13:21:20.995Z,1.15
2023-04-16T13:23:48.660Z,1.50
2023-04-16T13:26:17.600Z,1.40
2023-04-16T13:28:45.591Z,1.42
2023-04-16T13:31:13.984Z,1.20
2023-04-16T13:33:41.819Z,1.13
2023-04-16T13:36:09.554Z,1.52
2023-04-16T13:38:37.340Z,1.42
2023-04-16T13:41:06.223Z,1.20
2023-04-16T13:43:33.970Z,1.45
2023-04-16T13:46:01.872Z,1.08
2023-04-16T13:48:29.697Z,1.48
2023-04-16T13:50:57.471Z,1.05
2023-04-16T13:53:25.431Z,1.40
2023-04-16T13:55:53.355Z,0.95
2023-04-16T13:58:21.248Z,1.50
2023-04-16T14:00:49.025Z,1.33
2023-04-16T14:03:17.027Z,1.30
2023-04-16T14:05:44.810Z,1.20
2023-04-16T14:08:14.897Z,1.50
2023-04-16T14:10:42.846Z,1.35
2023-04-16T14:13:10.625Z,1.20
2023-04-16T14:15:38.571Z,1.20
2023-04-16T14:18:06.347Z,1.20
2023-04-16T14:20:34.035Z,1.45
2023-04-16T14:23:02.234Z,1.42
2023-04-16T14:25:29.846Z,1.50
2023-04-16T14:27:59.157Z,1.38
2023-04-16T14:30:27.047Z,1.05
2023-04-16T14:32:54.809Z,1.10
2023-04-16T14:35:23.436Z,1.30
2023-04-16T14:37:51.331Z,1.27
2023-04-16T14:40:19.124Z,1.10
2023-04-16T14:42:46.852Z,1.10
2023-04-16T14:45:14.672Z,1.48
2023-04-16T14:47:47.278Z,1.25
2023-04-16T14:50:15.841Z,1.45
2023-04-16T14:52:43.656Z,1.42
2023-04-16T14:55:11.611Z,1.25
2023-04-16T14:57:39.400Z,1.17
2023-04-16T15:00:10.015Z,1.02
2023-04-16T15:02:38.244Z,1.00
2023-04-16T15:05:07.998Z,1.23
2023-04-16T15:07:35.891Z,1.20
2023-04-16T15:10:03.964Z,1.40
2023-04-16T15:12:31.607Z,1.10
2023-04-16T15:15:00.088Z,1.38
2023-04-16T15:17:27.721Z,0.93
2023-04-16T15:19:55.563Z,1.10
2023-04-16T15:22:23.264Z,1.10
2023-04-16T15:24:51.104Z,1.30
2023-04-16T15:27:19.481Z,0.95
2023-04-16T15:29:49.582Z,1.17
2023-04-16T15:32:17.457Z,1.25
2023-04-16T15:34:46.893Z,1.38
2023-04-16T15:37:15.656Z,1.10
2023-04-16T15:39:43.592Z,1.20
2023-04-16T15:42:11.538Z,0.95
2023-04-16T15:44:39.295Z,1.48
2023-04-16T15:47:08.696Z,1.20
2023-04-16T15:49:36.667Z,1.30
2023-04-16T15:52:04.764Z,1.20
2023-04-16T15:54:32.482Z,1.10
2023-04-16T15:57:00.152Z,1.10
2023-04-16T15:59:27.874Z,1.10
2023-04-16T16:01:56.027Z,1.02
2023-04-16T16:04:26.518Z,1.23
2023-04-16T16:06:54.433Z,1.05
2023-04-16T16:09:26.453Z,1.10
2023-04-16T16:11:54.785Z,1.25
2023-04-16T16:14:23.006Z,1.00
2023-04-16T16:16:51.441Z,1.13
2023-04-16T16:19:19.385Z,1.17
2023-04-16T16:21:47.028Z,1.30
2023-04-16T16:24:15.712Z,1.17
2023-04-16T16:26:43.477Z,1.23
2023-04-16T16:29:11.627Z,1.45
2023-04-16T16:31:39.539Z,1.50
2023-04-16T16:34:07.468Z,1.30
2023-04-16T16:36:36.900Z,1.38
2023-04-16T16:39:04.976Z,1.17
2023-04-16T16:41:33.103Z,1.10
2023-04-16T16:44:00.787Z,1.35
2023-04-16T16:46:28.588Z,1.50
2023-04-16T16:48:56.606Z,1.20
2023-04-16T16:51:24.326Z,1.48
2023-04-16T16:53:53.104Z,1.10
2023-04-16T16:56:20.841Z,1.20
2023-04-16T16:58:48.613Z,1.10
2023-04-16T17:01:16.609Z,1.23
2023-04-16T17:03:44.557Z,1.17
2023-04-16T17:06:12.502Z,1.48
2023-04-16T17:08:40.255Z,1.17
2023-04-16T17:11:08.004Z,1.40
2023-04-16T17:13:36.099Z,1.30
2023-04-16T17:16:03.997Z,1.40
2023-04-16T17:18:31.690Z,1.38
2023-04-16T17:20:59.474Z,1.55
2023-04-16T17:23:27.331Z,1.40
2023-04-16T17:25:55.175Z,1.30
2023-04-16T17:28:22.824Z,1.30
2023-04-16T17:30:51.975Z,1.27
2023-04-16T17:33:20.204Z,1.52
2023-04-16T17:35:48.181Z,1.10
2023-04-16T17:38:16.080Z,1.52
2023-04-16T17:40:43.827Z,1.20
2023-04-16T17:43:11.468Z,1.20
2023-04-16T17:45:39.329Z,1.08
2023-04-16T17:48:07.153Z,1.27
2023-04-16T17:50:36.025Z,1.30
2023-04-16T17:53:04.852Z,1.83
2023-04-16T17:55:32.543Z,1.30
2023-04-16T17:58:00.693Z,1.50
2023-04-16T18:00:28.300Z,1.17
2023-04-16T18:02:58.023Z,1.30
2023-04-16T18:05:27.791Z,1.42
2023-04-16T18:07:57.136Z,1.05
2023-04-16T18:10:25.407Z,1.40
2023-04-16T18:12:53.254Z,1.30
2023-04-16T18:15:21.138Z,1.20
2023-04-16T18:17:48.881Z,1.58
2023-04-16T18:20:19.683Z,1.38
2023-04-16T18:22:48.686Z,1.02
2023-04-16T18:25:16.590Z,1.35
2023-04-16T18:27:44.984Z,1.15
2023-04-16T18:30:20.145Z,0.90
2023-04-16T18:33:10.581Z,1.50
2023-04-16T18:35:42.414Z,0.90
